sensor_id;sensor_type;location;lat;lon;timestamp;temperature;humidity
67141;DHT22;54058;52.010;5.546;2023-02-28T00:01:21;1.90;71.60
67141;DHT22;54058;52.010;5.546;2023-02-28T00:03:47;2.00;71.60
67141;DHT22;54058;52.010;5.546;2023-02-28T00:06:12;2.00;71.60
67141;DHT22;54058;52.010;5.546;2023-02-28T00:08:38;2.00;71.70
67141;DHT22;54058;52.010;5.546;2023-02-28T00:11:09;2.00;71.80
67141;DHT22;54058;52.010;5.546;2023-02-28T00:13:37;2.10;72.50
67141;DHT22;54058;52.010;5.546;2023-02-28T00:16:06;2.00;72.10
67141;DHT22;54058;52.010;5.546;2023-02-28T00:18:32;1.90;72.10
67141;DHT22;54058;52.010;5.546;2023-02-28T00:20:59;1.90;72.20
67141;DHT22;54058;52.010;5.546;2023-02-28T00:23:25;2.00;72.10
67141;DHT22;54058;52.010;5.546;2023-02-28T00:25:51;2.00;72.20
67141;DHT22;54058;52.010;5.546;2023-02-28T00:28:17;2.10;72.60
67141;DHT22;54058;52.010;5.546;2023-02-28T00:30:43;2.10;73.00
67141;DHT22;54058;52.010;5.546;2023-02-28T00:33:09;2.20;72.60
67141;DHT22;54058;52.010;5.546;2023-02-28T00:35:35;2.30;72.30
67141;DHT22;54058;52.010;5.546;2023-02-28T00:38:00;2.30;72.30
67141;DHT22;54058;52.010;5.546;2023-02-28T00:40:26;2.40;72.60
67141;DHT22;54058;52.010;5.546;2023-02-28T00:42:52;2.40;72.40
67141;DHT22;54058;52.010;5.546;2023-02-28T00:45:17;2.30;72.50
67141;DHT22;54058;52.010;5.546;2023-02-28T00:47:44;2.30;72.80
67141;DHT22;54058;52.010;5.546;2023-02-28T00:50:12;2.20;72.80
67141;DHT22;54058;52.010;5.546;2023-02-28T00:52:37;2.20;73.80
67141;DHT22;54058;52.010;5.546;2023-02-28T00:55:04;2.20;73.10
67141;DHT22;54058;52.010;5.546;2023-02-28T00:57:30;2.10;72.90
67141;DHT22;54058;52.010;5.546;2023-02-28T00:59:55;2.20;73.20
67141;DHT22;54058;52.010;5.546;2023-02-28T01:02:22;2.30;74.00
67141;DHT22;54058;52.010;5.546;2023-02-28T01:04:47;2.30;73.40
67141;DHT22;54058;52.010;5.546;2023-02-28T01:07:13;2.30;73.30
67141;DHT22;54058;52.010;5.546;2023-02-28T01:09:40;2.40;74.00
67141;DHT22;54058;52.010;5.546;2023-02-28T01:12:07;2.30;73.20
67141;DHT22;54058;52.010;5.546;2023-02-28T01:14:33;2.30;73.30
67141;DHT22;54058;52.010;5.546;2023-02-28T01:17:00;2.30;73.80
67141;DHT22;54058;52.010;5.546;2023-02-28T01:19:25;2.30;74.30
67141;DHT22;54058;52.010;5.546;2023-02-28T01:21:51;2.40;73.90
67141;DHT22;54058;52.010;5.546;2023-02-28T01:24:16;2.50;73.80
67141;DHT22;54058;52.010;5.546;2023-02-28T01:26:42;2.60;73.90
67141;DHT22;54058;52.010;5.546;2023-02-28T01:29:08;2.60;73.50
67141;DHT22;54058;52.010;5.546;2023-02-28T01:31:33;2.60;73.50
67141;DHT22;54058;52.010;5.546;2023-02-28T01:33:59;2.60;73.60
67141;DHT22;54058;52.010;5.546;2023-02-28T01:36:25;2.60;73.60
67141;DHT22;54058;52.010;5.546;2023-02-28T01:38:51;2.60;73.70
67141;DHT22;54058;52.010;5.546;2023-02-28T01:41:31;2.60;73.90
67141;DHT22;54058;52.010;5.546;2023-02-28T01:44:02;2.60;74.00
67141;DHT22;54058;52.010;5.546;2023-02-28T01:46:30;2.70;74.00
67141;DHT22;54058;52.010;5.546;2023-02-28T01:49:11;2.80;73.90
67141;DHT22;54058;52.010;5.546;2023-02-28T01:51:43;2.80;74.00
67141;DHT22;54058;52.010;5.546;2023-02-28T01:54:28;2.90;73.90
67141;DHT22;54058;52.010;5.546;2023-02-28T01:57:07;3.00;73.90
67141;DHT22;54058;52.010;5.546;2023-02-28T01:59:37;3.10;73.60
67141;DHT22;54058;52.010;5.546;2023-02-28T02:02:05;3.20;73.60
67141;DHT22;54058;52.010;5.546;2023-02-28T02:04:40;3.20;73.40
67141;DHT22;54058;52.010;5.546;2023-02-28T02:07:07;3.20;73.10
67141;DHT22;54058;52.010;5.546;2023-02-28T02:09:33;3.20;73.30
67141;DHT22;54058;52.010;5.546;2023-02-28T02:12:00;3.20;73.40
67141;DHT22;54058;52.010;5.546;2023-02-28T02:15:04;3.10;73.40
67141;DHT22;54058;52.010;5.546;2023-02-28T02:18:09;3.10;73.60
67141;DHT22;54058;52.010;5.546;2023-02-28T02:23:28;3.30;73.70
67141;DHT22;54058;52.010;5.546;2023-02-28T02:26:27;3.20;73.70
67141;DHT22;54058;52.010;5.546;2023-02-28T02:37:40;3.10;73.80
67141;DHT22;54058;52.010;5.546;2023-02-28T02:40:14;3.20;74.20
67141;DHT22;54058;52.010;5.546;2023-02-28T02:42:50;3.20;74.10
67141;DHT22;54058;52.010;5.546;2023-02-28T02:45:26;3.30;74.10
67141;DHT22;54058;52.010;5.546;2023-02-28T02:47:53;3.30;74.00
67141;DHT22;54058;52.010;5.546;2023-02-28T02:50:26;3.40;74.10
67141;DHT22;54058;52.010;5.546;2023-02-28T02:52:57;3.40;73.80
67141;DHT22;54058;52.010;5.546;2023-02-28T02:55:25;3.40;74.00
67141;DHT22;54058;52.010;5.546;2023-02-28T02:57:59;3.40;73.90
67141;DHT22;54058;52.010;5.546;2023-02-28T03:00:29;3.40;74.00
67141;DHT22;54058;52.010;5.546;2023-02-28T03:02:56;3.50;73.90
67141;DHT22;54058;52.010;5.546;2023-02-28T03:05:29;3.60;73.80
67141;DHT22;54058;52.010;5.546;2023-02-28T03:07:55;3.60;73.70
67141;DHT22;54058;52.010;5.546;2023-02-28T03:10:42;3.70;73.70
67141;DHT22;54058;52.010;5.546;2023-02-28T03:13:36;3.70;73.50
67141;DHT22;54058;52.010;5.546;2023-02-28T03:19:23;3.40;73.90
67141;DHT22;54058;52.010;5.546;2023-02-28T03:24:40;3.50;74.10
67141;DHT22;54058;52.010;5.546;2023-02-28T03:27:16;3.50;74.00
67141;DHT22;54058;52.010;5.546;2023-02-28T03:29:47;3.60;74.20
67141;DHT22;54058;52.010;5.546;2023-02-28T03:32:26;3.60;74.10
67141;DHT22;54058;52.010;5.546;2023-02-28T03:35:26;3.60;74.00
67141;DHT22;54058;52.010;5.546;2023-02-28T03:38:01;3.60;74.40
67141;DHT22;54058;52.010;5.546;2023-02-28T03:40:32;3.70;74.10
67141;DHT22;54058;52.010;5.546;2023-02-28T03:43:10;3.70;73.90
67141;DHT22;54058;52.010;5.546;2023-02-28T03:45:39;3.70;73.90
67141;DHT22;54058;52.010;5.546;2023-02-28T03:50:41;3.80;73.80
67141;DHT22;54058;52.010;5.546;2023-02-28T03:53:16;3.70;73.80
67141;DHT22;54058;52.010;5.546;2023-02-28T03:55:55;3.70;73.90
67141;DHT22;54058;52.010;5.546;2023-02-28T03:58:30;3.70;73.90
67141;DHT22;54058;52.010;5.546;2023-02-28T04:01:23;3.70;73.90
67141;DHT22;54058;52.010;5.546;2023-02-28T04:03:49;3.60;74.20
67141;DHT22;54058;52.010;5.546;2023-02-28T04:06:18;3.60;74.90
67141;DHT22;54058;52.010;5.546;2023-02-28T04:08:43;3.60;75.30
67141;DHT22;54058;52.010;5.546;2023-02-28T04:11:20;3.70;74.50
67141;DHT22;54058;52.010;5.546;2023-02-28T04:13:46;3.70;74.30
67141;DHT22;54058;52.010;5.546;2023-02-28T04:16:12;3.70;74.00
67141;DHT22;54058;52.010;5.546;2023-02-28T04:18:41;3.60;73.60
67141;DHT22;54058;52.010;5.546;2023-02-28T04:21:11;3.60;73.40
67141;DHT22;54058;52.010;5.546;2023-02-28T04:23:37;3.60;74.00
67141;DHT22;54058;52.010;5.546;2023-02-28T04:26:03;3.50;73.40
67141;DHT22;54058;52.010;5.546;2023-02-28T04:28:29;3.40;73.60
67141;DHT22;54058;52.010;5.546;2023-02-28T04:31:03;3.40;73.60
67141;DHT22;54058;52.010;5.546;2023-02-28T04:33:30;3.30;73.50
67141;DHT22;54058;52.010;5.546;2023-02-28T04:36:01;3.20;73.50
67141;DHT22;54058;52.010;5.546;2023-02-28T04:38:28;3.30;74.90
67141;DHT22;54058;52.010;5.546;2023-02-28T04:40:57;3.30;73.80
67141;DHT22;54058;52.010;5.546;2023-02-28T04:43:23;3.30;73.50
67141;DHT22;54058;52.010;5.546;2023-02-28T04:45:48;3.30;73.40
67141;DHT22;54058;52.010;5.546;2023-02-28T04:48:14;3.30;73.30
67141;DHT22;54058;52.010;5.546;2023-02-28T04:50:39;3.30;73.40
67141;DHT22;54058;52.010;5.546;2023-02-28T04:53:05;3.20;73.40
67141;DHT22;54058;52.010;5.546;2023-02-28T04:55:30;3.20;73.50
67141;DHT22;54058;52.010;5.546;2023-02-28T04:57:56;3.30;73.50
67141;DHT22;54058;52.010;5.546;2023-02-28T05:00:22;3.30;73.40
67141;DHT22;54058;52.010;5.546;2023-02-28T05:02:47;3.30;73.30
67141;DHT22;54058;52.010;5.546;2023-02-28T05:05:13;3.20;73.30
67141;DHT22;54058;52.010;5.546;2023-02-28T05:07:44;3.20;73.60
67141;DHT22;54058;52.010;5.546;2023-02-28T05:10:10;3.10;73.70
67141;DHT22;54058;52.010;5.546;2023-02-28T05:12:36;3.20;73.90
67141;DHT22;54058;52.010;5.546;2023-02-28T05:15:01;3.20;74.00
67141;DHT22;54058;52.010;5.546;2023-02-28T05:17:28;3.20;74.00
67141;DHT22;54058;52.010;5.546;2023-02-28T05:19:53;3.30;74.00
67141;DHT22;54058;52.010;5.546;2023-02-28T05:22:19;3.30;73.90
67141;DHT22;54058;52.010;5.546;2023-02-28T05:24:44;3.40;74.00
67141;DHT22;54058;52.010;5.546;2023-02-28T05:27:10;3.50;74.00
67141;DHT22;54058;52.010;5.546;2023-02-28T05:29:36;3.50;74.00
67141;DHT22;54058;52.010;5.546;2023-02-28T05:32:08;3.60;73.90
67141;DHT22;54058;52.010;5.546;2023-02-28T05:34:35;3.60;73.90
67141;DHT22;54058;52.010;5.546;2023-02-28T05:37:01;3.70;73.90
67141;DHT22;54058;52.010;5.546;2023-02-28T05:39:26;3.70;73.80
67141;DHT22;54058;52.010;5.546;2023-02-28T05:41:52;3.80;73.90
67141;DHT22;54058;52.010;5.546;2023-02-28T05:44:18;3.70;73.80
67141;DHT22;54058;52.010;5.546;2023-02-28T05:46:43;3.70;73.90
67141;DHT22;54058;52.010;5.546;2023-02-28T05:49:09;3.60;74.00
67141;DHT22;54058;52.010;5.546;2023-02-28T05:51:34;3.50;74.20
67141;DHT22;54058;52.010;5.546;2023-02-28T05:54:02;3.60;74.40
67141;DHT22;54058;52.010;5.546;2023-02-28T05:56:28;3.60;74.40
67141;DHT22;54058;52.010;5.546;2023-02-28T05:58:53;3.60;74.50
67141;DHT22;54058;52.010;5.546;2023-02-28T06:01:43;3.50;74.50
67141;DHT22;54058;52.010;5.546;2023-02-28T06:04:17;3.60;74.80
67141;DHT22;54058;52.010;5.546;2023-02-28T06:06:48;3.70;74.60
67141;DHT22;54058;52.010;5.546;2023-02-28T06:09:14;3.70;74.40
67141;DHT22;54058;52.010;5.546;2023-02-28T06:11:40;3.80;74.40
67141;DHT22;54058;52.010;5.546;2023-02-28T06:14:07;3.70;74.30
67141;DHT22;54058;52.010;5.546;2023-02-28T06:16:34;3.70;74.60
67141;DHT22;54058;52.010;5.546;2023-02-28T06:19:02;3.70;75.10
67141;DHT22;54058;52.010;5.546;2023-02-28T06:21:28;3.70;74.50
67141;DHT22;54058;52.010;5.546;2023-02-28T06:23:54;3.60;74.60
67141;DHT22;54058;52.010;5.546;2023-02-28T06:26:20;3.60;74.70
67141;DHT22;54058;52.010;5.546;2023-02-28T06:28:46;3.60;74.70
67141;DHT22;54058;52.010;5.546;2023-02-28T06:31:14;3.60;74.70
67141;DHT22;54058;52.010;5.546;2023-02-28T06:33:40;3.70;74.80
67141;DHT22;54058;52.010;5.546;2023-02-28T06:36:08;3.70;74.80
67141;DHT22;54058;52.010;5.546;2023-02-28T06:38:34;3.70;74.80
67141;DHT22;54058;52.010;5.546;2023-02-28T06:41:00;3.70;75.70
67141;DHT22;54058;52.010;5.546;2023-02-28T06:43:33;3.80;74.90
67141;DHT22;54058;52.010;5.546;2023-02-28T06:46:00;3.80;74.70
67141;DHT22;54058;52.010;5.546;2023-02-28T06:48:27;3.70;74.60
67141;DHT22;54058;52.010;5.546;2023-02-28T06:51:03;3.70;74.80
67141;DHT22;54058;52.010;5.546;2023-02-28T06:53:29;3.70;74.80
67141;DHT22;54058;52.010;5.546;2023-02-28T06:55:54;3.80;74.90
67141;DHT22;54058;52.010;5.546;2023-02-28T06:58:20;3.90;74.80
67141;DHT22;54058;52.010;5.546;2023-02-28T07:00:50;3.90;74.70
67141;DHT22;54058;52.010;5.546;2023-02-28T07:03:16;3.90;74.60
67141;DHT22;54058;52.010;5.546;2023-02-28T07:05:43;4.00;74.60
67141;DHT22;54058;52.010;5.546;2023-02-28T07:08:08;4.00;74.50
67141;DHT22;54058;52.010;5.546;2023-02-28T07:10:37;4.10;74.60
67141;DHT22;54058;52.010;5.546;2023-02-28T07:13:04;4.10;74.60
67141;DHT22;54058;52.010;5.546;2023-02-28T07:15:30;4.10;74.60
67141;DHT22;54058;52.010;5.546;2023-02-28T07:17:55;4.20;74.60
67141;DHT22;54058;52.010;5.546;2023-02-28T07:20:22;4.10;74.60
67141;DHT22;54058;52.010;5.546;2023-02-28T07:22:49;4.20;74.80
67141;DHT22;54058;52.010;5.546;2023-02-28T07:25:21;4.20;74.70
67141;DHT22;54058;52.010;5.546;2023-02-28T07:27:47;4.30;74.70
67141;DHT22;54058;52.010;5.546;2023-02-28T07:30:13;4.30;74.80
67141;DHT22;54058;52.010;5.546;2023-02-28T07:32:38;4.30;74.80
67141;DHT22;54058;52.010;5.546;2023-02-28T07:35:04;4.40;74.80
67141;DHT22;54058;52.010;5.546;2023-02-28T07:37:30;4.50;74.80
67141;DHT22;54058;52.010;5.546;2023-02-28T07:40:06;4.50;74.80
67141;DHT22;54058;52.010;5.546;2023-02-28T07:42:34;4.40;74.40
67141;DHT22;54058;52.010;5.546;2023-02-28T07:45:00;4.30;74.50
67141;DHT22;54058;52.010;5.546;2023-02-28T07:47:26;4.20;74.60
67141;DHT22;54058;52.010;5.546;2023-02-28T07:49:52;4.20;74.70
67141;DHT22;54058;52.010;5.546;2023-02-28T07:52:18;4.10;74.60
67141;DHT22;54058;52.010;5.546;2023-02-28T07:54:43;4.20;75.00
67141;DHT22;54058;52.010;5.546;2023-02-28T07:57:09;4.30;75.50
67141;DHT22;54058;52.010;5.546;2023-02-28T07:59:34;4.40;74.70
67141;DHT22;54058;52.010;5.546;2023-02-28T08:02:00;4.40;74.80
67141;DHT22;54058;52.010;5.546;2023-02-28T08:04:26;4.60;74.70
67141;DHT22;54058;52.010;5.546;2023-02-28T08:06:52;4.50;74.50
67141;DHT22;54058;52.010;5.546;2023-02-28T08:09:18;4.60;74.60
67141;DHT22;54058;52.010;5.546;2023-02-28T08:11:44;4.50;74.20
67141;DHT22;54058;52.010;5.546;2023-02-28T08:14:10;4.60;74.60
67141;DHT22;54058;52.010;5.546;2023-02-28T08:16:35;4.70;74.20
67141;DHT22;54058;52.010;5.546;2023-02-28T08:19:01;4.70;73.70
67141;DHT22;54058;52.010;5.546;2023-02-28T08:21:27;4.70;73.30
67141;DHT22;54058;52.010;5.546;2023-02-28T08:23:52;4.70;73.70
67141;DHT22;54058;52.010;5.546;2023-02-28T08:26:19;4.70;72.70
67141;DHT22;54058;52.010;5.546;2023-02-28T08:28:45;4.70;72.50
67141;DHT22;54058;52.010;5.546;2023-02-28T08:31:13;4.70;71.40
67141;DHT22;54058;52.010;5.546;2023-02-28T08:33:40;4.80;71.70
67141;DHT22;54058;52.010;5.546;2023-02-28T08:36:07;5.10;71.50
67141;DHT22;54058;52.010;5.546;2023-02-28T08:38:34;5.40;70.70
67141;DHT22;54058;52.010;5.546;2023-02-28T08:41:02;5.60;70.10
67141;DHT22;54058;52.010;5.546;2023-02-28T08:43:28;5.60;68.80
67141;DHT22;54058;52.010;5.546;2023-02-28T08:45:55;5.80;69.10
67141;DHT22;54058;52.010;5.546;2023-02-28T08:48:26;5.90;68.70
67141;DHT22;54058;52.010;5.546;2023-02-28T08:50:59;5.90;64.10
67141;DHT22;54058;52.010;5.546;2023-02-28T08:53:25;6.00;67.40
67141;DHT22;54058;52.010;5.546;2023-02-28T08:56:02;6.10;67.90
67141;DHT22;54058;52.010;5.546;2023-02-28T08:58:28;6.10;65.70
67141;DHT22;54058;52.010;5.546;2023-02-28T09:00:54;6.00;57.30
67141;DHT22;54058;52.010;5.546;2023-02-28T09:03:21;6.00;63.20
67141;DHT22;54058;52.010;5.546;2023-02-28T09:05:58;6.10;66.00
67141;DHT22;54058;52.010;5.546;2023-02-28T09:08:26;6.20;65.20
67141;DHT22;54058;52.010;5.546;2023-02-28T09:10:52;6.30;64.80
67141;DHT22;54058;52.010;5.546;2023-02-28T09:13:18;6.40;64.90
67141;DHT22;54058;52.010;5.546;2023-02-28T09:15:44;6.50;65.60
67141;DHT22;54058;52.010;5.546;2023-02-28T09:18:10;6.50;64.20
67141;DHT22;54058;52.010;5.546;2023-02-28T09:20:40;6.60;63.60
67141;DHT22;54058;52.010;5.546;2023-02-28T09:23:07;6.70;62.40
67141;DHT22;54058;52.010;5.546;2023-02-28T09:25:35;6.40;63.10
67141;DHT22;54058;52.010;5.546;2023-02-28T09:28:00;6.40;63.30
67141;DHT22;54058;52.010;5.546;2023-02-28T09:30:26;6.40;57.80
67141;DHT22;54058;52.010;5.546;2023-02-28T09:32:52;6.40;60.80
67141;DHT22;54058;52.010;5.546;2023-02-28T09:35:23;6.40;62.40
67141;DHT22;54058;52.010;5.546;2023-02-28T09:37:50;6.60;64.10
67141;DHT22;54058;52.010;5.546;2023-02-28T09:40:18;6.70;62.90
67141;DHT22;54058;52.010;5.546;2023-02-28T09:42:46;6.60;61.00
67141;DHT22;54058;52.010;5.546;2023-02-28T09:45:36;6.60;60.20
67141;DHT22;54058;52.010;5.546;2023-02-28T09:48:07;6.50;59.00
67141;DHT22;54058;52.010;5.546;2023-02-28T09:50:40;6.40;60.60
67141;DHT22;54058;52.010;5.546;2023-02-28T09:53:33;6.50;60.80
67141;DHT22;54058;52.010;5.546;2023-02-28T09:56:07;6.50;60.60
67141;DHT22;54058;52.010;5.546;2023-02-28T10:07:56;6.40;58.00
67141;DHT22;54058;52.010;5.546;2023-02-28T10:10:42;6.40;56.70
67141;DHT22;54058;52.010;5.546;2023-02-28T10:13:20;6.30;58.90
67141;DHT22;54058;52.010;5.546;2023-02-28T10:15:50;6.30;60.40
67141;DHT22;54058;52.010;5.546;2023-02-28T10:18:22;6.30;59.40
67141;DHT22;54058;52.010;5.546;2023-02-28T10:20:50;6.30;60.80
67141;DHT22;54058;52.010;5.546;2023-02-28T10:23:24;6.40;60.60
67141;DHT22;54058;52.010;5.546;2023-02-28T10:26:03;6.40;61.70
67141;DHT22;54058;52.010;5.546;2023-02-28T10:28:30;6.40;57.50
67141;DHT22;54058;52.010;5.546;2023-02-28T10:30:57;6.30;58.60
67141;DHT22;54058;52.010;5.546;2023-02-28T10:33:25;6.30;59.90
67141;DHT22;54058;52.010;5.546;2023-02-28T10:35:52;6.30;48.80
67141;DHT22;54058;52.010;5.546;2023-02-28T10:38:27;6.30;59.30
67141;DHT22;54058;52.010;5.546;2023-02-28T10:41:27;6.40;60.20
67141;DHT22;54058;52.010;5.546;2023-02-28T10:44:17;6.50;58.50
67141;DHT22;54058;52.010;5.546;2023-02-28T10:46:45;6.60;56.60
67141;DHT22;54058;52.010;5.546;2023-02-28T10:49:23;6.60;59.10
67141;DHT22;54058;52.010;5.546;2023-02-28T10:51:54;6.50;57.20
67141;DHT22;54058;52.010;5.546;2023-02-28T10:54:30;6.60;59.90
67141;DHT22;54058;52.010;5.546;2023-02-28T10:57:30;6.60;58.20
67141;DHT22;54058;52.010;5.546;2023-02-28T11:00:20;6.50;53.10
67141;DHT22;54058;52.010;5.546;2023-02-28T11:02:47;6.60;54.80
67141;DHT22;54058;52.010;5.546;2023-02-28T11:08:12;6.70;53.00
67141;DHT22;54058;52.010;5.546;2023-02-28T11:10:39;6.80;58.60
67141;DHT22;54058;52.010;5.546;2023-02-28T11:13:05;6.90;59.30
67141;DHT22;54058;52.010;5.546;2023-02-28T11:15:33;7.00;60.30
67141;DHT22;54058;52.010;5.546;2023-02-28T11:20:38;7.00;58.50
67141;DHT22;54058;52.010;5.546;2023-02-28T11:23:04;7.10;59.00
67141;DHT22;54058;52.010;5.546;2023-02-28T11:25:38;7.10;58.40
67141;DHT22;54058;52.010;5.546;2023-02-28T11:28:08;7.30;59.50
67141;DHT22;54058;52.010;5.546;2023-02-28T11:36:33;7.40;59.20
67141;DHT22;54058;52.010;5.546;2023-02-28T11:39:04;7.40;56.80
67141;DHT22;54058;52.010;5.546;2023-02-28T11:44:43;7.20;57.70
67141;DHT22;54058;52.010;5.546;2023-02-28T11:52:40;7.50;56.30
67141;DHT22;54058;52.010;5.546;2023-02-28T11:55:12;7.50;56.90
67141;DHT22;54058;52.010;5.546;2023-02-28T12:00:40;7.40;56.40
67141;DHT22;54058;52.010;5.546;2023-02-28T12:09:02;7.50;57.30
67141;DHT22;54058;52.010;5.546;2023-02-28T12:11:53;7.60;58.80
67141;DHT22;54058;52.010;5.546;2023-02-28T12:14:53;7.70;54.50
67141;DHT22;54058;52.010;5.546;2023-02-28T12:28:19;7.60;50.40
67141;DHT22;54058;52.010;5.546;2023-02-28T12:30:57;7.60;56.50
67141;DHT22;54058;52.010;5.546;2023-02-28T12:33:28;7.60;57.10
67141;DHT22;54058;52.010;5.546;2023-02-28T12:35:59;7.60;55.50
67141;DHT22;54058;52.010;5.546;2023-02-28T12:38:35;7.60;57.50
67141;DHT22;54058;52.010;5.546;2023-02-28T12:43:36;7.60;56.80
67141;DHT22;54058;52.010;5.546;2023-02-28T12:46:13;7.70;57.20
67141;DHT22;54058;52.010;5.546;2023-02-28T12:51:12;7.60;56.70
67141;DHT22;54058;52.010;5.546;2023-02-28T12:56:23;7.70;57.20
67141;DHT22;54058;52.010;5.546;2023-02-28T12:58:57;7.70;55.40
67141;DHT22;54058;52.010;5.546;2023-02-28T13:09:52;7.50;58.20
67141;DHT22;54058;52.010;5.546;2023-02-28T13:12:19;7.50;53.00
67141;DHT22;54058;52.010;5.546;2023-02-28T13:14:46;7.40;55.00
67141;DHT22;54058;52.010;5.546;2023-02-28T13:17:19;7.50;56.70
67141;DHT22;54058;52.010;5.546;2023-02-28T13:24:57;7.50;55.60
67141;DHT22;54058;52.010;5.546;2023-02-28T13:35:45;7.30;52.40
67141;DHT22;54058;52.010;5.546;2023-02-28T13:38:54;7.20;55.00
67141;DHT22;54058;52.010;5.546;2023-02-28T13:44:15;7.20;52.30
67141;DHT22;54058;52.010;5.546;2023-02-28T13:49:26;7.20;54.10
67141;DHT22;54058;52.010;5.546;2023-02-28T13:59:58;7.10;52.50
67141;DHT22;54058;52.010;5.546;2023-02-28T14:05:14;7.10;52.40
67141;DHT22;54058;52.010;5.546;2023-02-28T14:07:52;7.20;53.60
67141;DHT22;54058;52.010;5.546;2023-02-28T14:10:33;7.30;51.60
67141;DHT22;54058;52.010;5.546;2023-02-28T14:15:58;7.30;48.70
67141;DHT22;54058;52.010;5.546;2023-02-28T14:18:26;7.30;50.80
67141;DHT22;54058;52.010;5.546;2023-02-28T14:32:26;7.30;47.40
67141;DHT22;54058;52.010;5.546;2023-02-28T14:35:16;7.40;48.00
67141;DHT22;54058;52.010;5.546;2023-02-28T14:37:44;7.40;51.90
67141;DHT22;54058;52.010;5.546;2023-02-28T14:40:40;7.40;52.50
67141;DHT22;54058;52.010;5.546;2023-02-28T14:43:22;7.50;49.20
67141;DHT22;54058;52.010;5.546;2023-02-28T14:45:57;7.60;51.10
67141;DHT22;54058;52.010;5.546;2023-02-28T14:48:24;7.50;51.80
67141;DHT22;54058;52.010;5.546;2023-02-28T14:50:58;7.50;53.70
67141;DHT22;54058;52.010;5.546;2023-02-28T14:53:30;7.60;51.90
67141;DHT22;54058;52.010;5.546;2023-02-28T14:56:00;7.50;53.00
67141;DHT22;54058;52.010;5.546;2023-02-28T14:58:28;7.40;51.20
67141;DHT22;54058;52.010;5.546;2023-02-28T15:00:58;7.40;53.10
67141;DHT22;54058;52.010;5.546;2023-02-28T15:03:31;7.40;53.40
67141;DHT22;54058;52.010;5.546;2023-02-28T15:06:11;7.40;49.30
67141;DHT22;54058;52.010;5.546;2023-02-28T15:08:37;7.40;52.60
67141;DHT22;54058;52.010;5.546;2023-02-28T15:11:14;7.40;54.00
67141;DHT22;54058;52.010;5.546;2023-02-28T15:13:43;7.40;52.20
67141;DHT22;54058;52.010;5.546;2023-02-28T15:16:26;7.40;52.40
67141;DHT22;54058;52.010;5.546;2023-02-28T15:18:59;7.40;51.00
67141;DHT22;54058;52.010;5.546;2023-02-28T15:21:31;7.30;52.60
67141;DHT22;54058;52.010;5.546;2023-02-28T15:24:02;7.30;52.20
67141;DHT22;54058;52.010;5.546;2023-02-28T15:26:33;7.30;51.90
67141;DHT22;54058;52.010;5.546;2023-02-28T15:29:03;7.20;51.40
67141;DHT22;54058;52.010;5.546;2023-02-28T15:31:33;7.20;51.40
67141;DHT22;54058;52.010;5.546;2023-02-28T15:34:03;7.20;52.20
67141;DHT22;54058;52.010;5.546;2023-02-28T15:36:32;7.20;53.90
67141;DHT22;54058;52.010;5.546;2023-02-28T15:39:00;7.20;52.90
67141;DHT22;54058;52.010;5.546;2023-02-28T15:41:37;7.20;53.00
67141;DHT22;54058;52.010;5.546;2023-02-28T15:44:26;7.10;50.90
67141;DHT22;54058;52.010;5.546;2023-02-28T15:47:01;7.10;50.10
67141;DHT22;54058;52.010;5.546;2023-02-28T15:49:28;7.10;53.30
67141;DHT22;54058;52.010;5.546;2023-02-28T15:51:57;7.10;53.60
67141;DHT22;54058;52.010;5.546;2023-02-28T15:54:32;7.10;53.30
67141;DHT22;54058;52.010;5.546;2023-02-28T15:57:05;7.10;51.80
67141;DHT22;54058;52.010;5.546;2023-02-28T15:59:35;7.00;53.30
67141;DHT22;54058;52.010;5.546;2023-02-28T16:02:28;7.00;53.10
67141;DHT22;54058;52.010;5.546;2023-02-28T16:05:12;6.90;46.50
67141;DHT22;54058;52.010;5.546;2023-02-28T16:07:42;6.90;50.40
67141;DHT22;54058;52.010;5.546;2023-02-28T16:10:11;6.80;53.00
67141;DHT22;54058;52.010;5.546;2023-02-28T16:12:38;6.80;52.90
67141;DHT22;54058;52.010;5.546;2023-02-28T16:15:24;6.80;54.30
67141;DHT22;54058;52.010;5.546;2023-02-28T16:17:54;6.80;52.10
67141;DHT22;54058;52.010;5.546;2023-02-28T16:20:27;6.80;53.40
67141;DHT22;54058;52.010;5.546;2023-02-28T16:22:53;6.80;52.50
67141;DHT22;54058;52.010;5.546;2023-02-28T16:25:26;6.70;52.90
67141;DHT22;54058;52.010;5.546;2023-02-28T16:27:54;6.70;53.40
67141;DHT22;54058;52.010;5.546;2023-02-28T16:30:23;6.60;53.20
67141;DHT22;54058;52.010;5.546;2023-02-28T16:32:50;6.60;53.20
67141;DHT22;54058;52.010;5.546;2023-02-28T16:35:17;6.60;53.30
67141;DHT22;54058;52.010;5.546;2023-02-28T16:37:43;6.60;53.70
67141;DHT22;54058;52.010;5.546;2023-02-28T16:40:17;6.50;53.40
67141;DHT22;54058;52.010;5.546;2023-02-28T16:42:46;6.50;53.40
67141;DHT22;54058;52.010;5.546;2023-02-28T16:45:24;6.40;53.00
67141;DHT22;54058;52.010;5.546;2023-02-28T16:47:50;6.40;52.40
67141;DHT22;54058;52.010;5.546;2023-02-28T16:50:16;6.40;53.70
67141;DHT22;54058;52.010;5.546;2023-02-28T16:52:42;6.30;53.60
67141;DHT22;54058;52.010;5.546;2023-02-28T16:55:08;6.30;53.00
67141;DHT22;54058;52.010;5.546;2023-02-28T16:57:33;6.30;53.30
67141;DHT22;54058;52.010;5.546;2023-02-28T16:59:59;6.30;54.10
67141;DHT22;54058;52.010;5.546;2023-02-28T17:02:25;6.20;53.60
67141;DHT22;54058;52.010;5.546;2023-02-28T17:04:52;6.10;52.80
67141;DHT22;54058;52.010;5.546;2023-02-28T17:07:17;6.10;53.10
67141;DHT22;54058;52.010;5.546;2023-02-28T17:09:44;6.10;53.60
67141;DHT22;54058;52.010;5.546;2023-02-28T17:12:10;6.10;52.70
67141;DHT22;54058;52.010;5.546;2023-02-28T17:14:36;6.00;52.40
67141;DHT22;54058;52.010;5.546;2023-02-28T17:17:04;6.00;52.80
67141;DHT22;54058;52.010;5.546;2023-02-28T17:19:30;5.90;52.90
67141;DHT22;54058;52.010;5.546;2023-02-28T17:21:55;5.90;52.60
67141;DHT22;54058;52.010;5.546;2023-02-28T17:24:21;5.80;53.40
67141;DHT22;54058;52.010;5.546;2023-02-28T17:26:47;5.80;53.10
67141;DHT22;54058;52.010;5.546;2023-02-28T17:29:20;5.70;54.00
67141;DHT22;54058;52.010;5.546;2023-02-28T17:31:46;5.70;54.40
67141;DHT22;54058;52.010;5.546;2023-02-28T17:34:12;5.60;54.60
67141;DHT22;54058;52.010;5.546;2023-02-28T17:36:45;5.60;53.50
67141;DHT22;54058;52.010;5.546;2023-02-28T17:39:11;5.60;54.40
67141;DHT22;54058;52.010;5.546;2023-02-28T17:41:40;5.50;50.70
67141;DHT22;54058;52.010;5.546;2023-02-28T17:44:06;5.40;54.50
67141;DHT22;54058;52.010;5.546;2023-02-28T17:46:32;5.40;54.30
67141;DHT22;54058;52.010;5.546;2023-02-28T17:48:57;5.40;54.60
67141;DHT22;54058;52.010;5.546;2023-02-28T17:51:24;5.40;53.60
67141;DHT22;54058;52.010;5.546;2023-02-28T17:53:50;5.30;54.80
67141;DHT22;54058;52.010;5.546;2023-02-28T17:56:21;5.30;55.00
67141;DHT22;54058;52.010;5.546;2023-02-28T17:58:47;5.20;55.20
67141;DHT22;54058;52.010;5.546;2023-02-28T18:01:13;5.20;55.30
67141;DHT22;54058;52.010;5.546;2023-02-28T18:03:39;5.10;55.10
67141;DHT22;54058;52.010;5.546;2023-02-28T18:06:05;5.10;55.60
67141;DHT22;54058;52.010;5.546;2023-02-28T18:08:32;5.10;55.60
67141;DHT22;54058;52.010;5.546;2023-02-28T18:11:00;5.00;55.80
67141;DHT22;54058;52.010;5.546;2023-02-28T18:13:26;5.00;55.40